Terminal Aerodrome Forecast
Issued by NWS

Home | Current Version | Previous Version | Text Only | Print | Product List | Glossary On
Versions: 1 2 3 4 5 6 7 8 9 10 11 12 13 14 15 16 17 18 19 20 21 22 23 24 25 26 27 28 29 30 31 32
000
FTUS46 KLOX 180315 AAA
TAFLAX
TAF AMD
KLAX 180315Z 1803/1906 26009KT P6SM BKN250
     FM180400 25005KT P6SM BKN250
     FM180700 VRB03KT 6SM BR SCT007 OVC250
     FM181000 10004KT P6SM BKN012 OVC250
     FM181800 VRB03KT P6SM SCT017 BKN150
     FM182000 23008KT P6SM BKN020 BKN150
     FM190300 12005KT P6SM -SHRA BKN025 OVC050=

USA.gov is the U.S. government's official web portal to all federal, state and local government web resources and services.